Terminal Aerodrome Forecast
Issued by NWS North Platte, NE

Home | Current Version | Previous Version | Graphics & Text | Print | Product List | Glossary On
Versions: 1 2 3 4 5 6 7 8 9 10 11 12 13 14 15
000
FTUS43 KLBF 151120
TAFVTN
TAF
KVTN 151120Z 1512/1612 30007KT P6SM FEW250
     FM152300 05005KT P6SM SCT250
     FM160300 11007KT P6SM SCT150 BKN200
     FM160700 14009KT P6SM BKN150=

USA.gov is the U.S. government's official web portal to all federal, state and local government web resources and services.